Terminal Aerodrome Forecast
Issued by NWS Tuscon, AZ

Home | Current Version | Previous Version | Text Only | Print | Product List | Glossary On
Versions: 1 2 3 4 5 6 7 8 9 10 11 12 13 14 15 16 17 18 19 20 21 22 23 24
000
FTUS45 KTWC 212325
TAFTUS
TAF
KTUS 212325Z 2200/2224 23012G22KT P6SM SKC
     FM220300 25006KT P6SM SKC
     FM220700 16005KT P6SM SKC
     FM221800 22008KT P6SM SCT100=

USA.gov is the U.S. government's official web portal to all federal, state and local government web resources and services.